James Reserve, California Weather observations

Data are for 10 minute period ending at time listed.
 Day   Time   Solar   Ave.   Ave.  Ave.  Vector  Max.   Baro.   Total    
  of    of     Rad.   Air    Rel.  Wind   Wind   Wind  Press.  Precip.   
Year   Day            Temp.  Hum.  Speed  Dir.   Gust                    
2014   (PST)  Kw/m2    F      %     mph   deg.    mph    mb.     in.     
-------------------------------------------------------------------------
 260   10:20   0.12   73.6    61    0.8   216     2.3   837.0    0.00 
 260   10:30   0.17   72.6    62    0.8   210     1.6   837.0    0.00 
 260   10:40   0.17   73.2    62    0.6    79   1000.0   837.0    0.00 
 260   10:50   0.70   75.1    58    1.1    35   1000.0   837.0    0.00 
 260   11:00   0.55   74.5    59    1.0    76     2.8   837.0    0.00 
 260   11:10   0.19   73.3    62    0.7   162   1000.0   837.0    0.00 
 260   11:20   0.55   73.9    61    0.7    60     1.7   837.0    0.00 
 260   11:30   0.20   73.9    61    0.7    56     1.5   837.0    0.00 
 260   11:40   0.16   73.4    63    1.1   161     2.0   837.0    0.00 
 260   11:50   0.55   73.4    62    0.9    66     2.6   837.0    0.00 
 260   12:00   0.59   74.6    59    0.9   106     2.3   837.0    0.00 
 260   12:10   0.18   74.2    59    0.6   127     1.9   836.0    0.00 
 260   12:20   0.21   74.4    58    0.6    38     1.6   836.0    0.00 
 260   12:30   0.24   74.7    59    0.7   357     2.1   836.0    0.00 
 260   12:40   0.50   74.9    57    0.7    68     2.0   836.0    0.00 
 260   12:50   0.55   75.8    56    1.3   222     3.1   836.0    0.00 
 260   13:00   0.90   76.4    54    1.3   211     3.6   836.0    0.00 
 260   13:10   0.78   76.9    52    1.1    79     3.8   836.0    0.00 
 260   13:20   0.46   76.3    53    1.2    53     3.3   836.0    0.00 
 260   13:30   0.22   75.0    55    1.0   254     2.4   836.0    0.00 
 260   13:40   0.27   74.3    56    0.9    58     2.3   836.0    0.00 
 260   13:50   0.24   74.5    55    0.9   230     2.3   836.0    0.00 
 260   14:00   0.19   74.2    55    0.8   180     2.1   836.0    0.00 
 260   14:10   0.45   74.4    55    0.9    75     2.2   836.0    0.00 
 260   14:20   0.46   75.5    54    0.8    63     2.1   836.0    0.00 
 260   14:30   0.39   75.6    53    1.1    77     2.2   836.0    0.00 
 260   14:40   0.68   77.0    51    1.0    65     2.1   836.0    0.00 
 260   14:50   0.40   76.0    49    0.8    76     2.6   836.0    0.00 
 260   15:00   0.38   76.4    49    1.1   180     2.8   836.0    0.00 
 260   15:10   0.05   75.4    51    0.6    68     1.6   835.0    0.00 
 260   15:20   0.08   74.8    52    1.2    60     4.2   835.0    0.00 
 260   15:30   0.10   74.4    57    0.9    51     2.2   836.0    0.00 
 260   15:40   0.13   73.9    59    0.6     1     1.4   836.0    0.00 
 260   15:50   0.12   73.5    60    0.6    80     1.6   836.0    0.00 
 260   16:00   0.06   73.1    61    0.5    37     1.3   835.0    0.00 
 260   16:10   0.05   72.6    62    0.6    48     1.8   836.0    0.00 
 260   16:20   0.07   72.5    63    0.5    63     1.0   836.0    0.00 
 260   16:30   0.05   72.3    63    0.4   100     1.3   836.0    0.00 
 260   16:40   0.07   72.2    62    0.5    91     1.4   836.0    0.00 
 260   16:50   0.07   72.1    62    0.4    78     0.9   836.0    0.00 
 260   17:00   0.04   71.8    63    0.3    55     1.1   836.0    0.00 
 260   17:10   0.03   71.0    65    0.3    31     0.8   836.0    0.00 
 260   17:20   0.03   70.8    64    0.5    43     1.4   836.0    0.00 
 260   17:30   0.01   70.2    65    0.3     8     1.0   836.0    0.00 
 260   17:40   0.01   69.0    68    0.2    26     0.6   836.0    0.00 
 260   17:50   0.00   68.1    70    0.3    15     0.5   836.0    0.00 
 260   18:00   0.00   67.2    72    0.3   354     0.5   836.0    0.00 
 260   18:10   0.00   66.4    73    0.2   354     0.9   836.0    0.00 
 260   18:20   0.00   65.6    74    0.2   356     0.5   836.0    0.00 
 260   18:30   0.00   64.9    76    0.3     8     0.5   836.0    0.00 
 260   18:40   0.00   64.4    76    0.4    14     0.7   836.0    0.00 
 260   18:50   0.00   63.9    76    0.4   253     0.9   836.0    0.00 
 260   19:00   0.00   63.2    78    0.3     4     0.5   836.0    0.00 
 260   19:10   0.00   62.9    78    0.3    14     0.8   836.0    0.00 
 260   19:20   0.00   62.6    78    0.5    16     1.1   836.0    0.00 
 260   19:30   0.00   62.3    78    0.2   345     0.6   836.0    0.00 
 260   19:40   0.00   61.8    80    0.2   356     0.4   836.0    0.00 
 260   19:50   0.00   61.6    80    0.2     4     0.4   836.0    0.00 
 260   20:00   0.00   61.3    80    0.3     4     0.5   837.0    0.00 
 260   20:10   0.00   60.9    80    0.2   334     0.6   837.0    0.00 
 260   20:20   0.00   60.4    80    0.3   356     0.5   837.0    0.00 
 260   20:30   0.00   60.0    80    0.2   342     0.4   837.0    0.00 
 260   20:40   0.00   59.7    79    0.3    17     0.5   837.0    0.00 
 260   20:50   0.00   59.3    79    0.3     9     0.6   837.0    0.00 
 260   21:00   0.00   58.9    78    0.5    28     1.2   837.0    0.00 
 260   21:10   0.00   58.6    77    0.4    33     0.8   837.0    0.00 
 260   21:20   0.00   58.4    76    0.6    24     1.0   837.0    0.00 
 260   21:30   0.00   58.2    75    0.4     3     0.8   837.0    0.00 
 260   21:40   0.00   57.8    74    0.5    43     1.6   837.0    0.00 
 260   21:50   0.00   57.7    73    0.3    13     0.7   837.0    0.00 
 260   22:00   0.00   57.4    72    0.4     9     0.9   837.0    0.00 
 260   22:10   0.00   57.1    73    0.5    32     0.9   837.0    0.00 
 260   22:20   0.00   57.0    74    0.3    28     0.9   837.0    0.00 
 260   22:30   0.00   56.8    74    0.4    16     0.8   837.0    0.00 
 260   22:40   0.00   56.8    73    0.3     8     0.5   837.0    0.00 
 260   22:50   0.00   56.7    73    0.4    31     0.9   837.0    0.00 
 260   23:00   0.00   56.9    73    0.4    32     0.9   837.0    0.00 
 260   23:10   0.00   56.9    73    0.5    16     1.0   837.0    0.00 
 260   23:20   0.00   56.8    74    0.4    33     0.9   837.0    0.00 
 260   23:30   0.00   56.6    73    0.5    29     0.8   837.0    0.00 
 260   23:40   0.00   56.8    71    0.6    18     0.9   837.0    0.00 
 260   23:50   0.00   56.7    71    0.4    39     0.7   837.0    0.00 
 261    0:00   0.00   56.6    70    0.3    25     0.7   837.0    0.00 
 261    0:10   0.00   56.6    69    0.4    10     0.8   837.0    0.00 
 261    0:20   0.00   56.2    70    0.5    36     1.4   837.0    0.00 
 261    0:30   0.00   56.3    69    0.6    35     1.4   837.0    0.00 
 261    0:40   0.00   56.2    68    0.5    23     0.9   837.0    0.00 
 261    0:50   0.00   56.3    66    0.4    25     0.8   837.0    0.00 
 261    1:00   0.00   56.2    66    0.4    34     1.3   837.0    0.00 
 261    1:10   0.00   55.9    67    0.5    49     1.1   837.0    0.00 
 261    1:20   0.00   55.8    66    0.3    17     0.7   837.0    0.00 
 261    1:30   0.00   55.4    66    0.6    26     1.6   837.0    0.00 
 261    1:40   0.00   55.3    66    0.5    20     1.2   837.0    0.00 
 261    1:50   0.00   55.1    66    0.5    37     0.9   837.0    0.00 
 261    2:00   0.00   54.8    66    0.6    26     1.4   837.0    0.00 
 261    2:10   0.00   54.7    66    0.5    30     0.9   836.0    0.00 
 261    2:20   0.00   54.5    66    0.4    28     0.9   836.0    0.00 
 261    2:30   0.00   54.4    65    0.4    12     0.7   836.0    0.00 
 261    2:40   0.00   54.2    66    0.3    34     0.7   836.0    0.00 
 261    2:50   0.00   53.9    68    0.6    34     1.7   836.0    0.00 
 261    3:00   0.00   53.9    67    0.6    37     1.2   836.0    0.00 
 261    3:10   0.00   53.9    67    0.6    26     1.3   836.0    0.00 
 261    3:20   0.00   54.0    66    0.6    35     1.3   836.0    0.00 
 261    3:30   0.00   54.0    66    0.4    36     0.9   836.0    0.00 
 261    3:40   0.00   53.8    67    0.3    22     0.8   836.0    0.00 
 261    3:50   0.00   53.5    68    0.4    33     0.8   836.0    0.00 
 261    4:00   0.00   53.5    67    0.7    30     1.2   836.0    0.00 
 261    4:10   0.00   53.4    66    0.7    40     1.5   836.0    0.00 
 261    4:20   0.00   53.2    67    0.7    21     1.2   836.0    0.00 
 261    4:30   0.00   53.1    67    0.6     0     1.4   836.0    0.00 
 261    4:40   0.00   53.0    66    0.4    20     0.9   836.0    0.00 
 261    4:50   0.00   52.8    67    0.5    44     1.0   836.0    0.00 
 261    5:00   0.00   52.6    66    0.3    19     0.7   836.0    0.00 
 261    5:10   0.00   52.3    66    0.4    18     0.8   836.0    0.00 
 261    5:20   0.00   52.0    67    0.6    23     1.0   836.0    0.00 
 261    5:30   0.00   51.9    66    0.5    36     1.0   837.0    0.00 
 261    5:40   0.00   51.8    66    0.4    27     1.1   837.0    0.00 
 261    5:50   0.00   51.6    66    0.5    23     1.2   837.0    0.00 
 261    6:00   0.00   51.6    66    0.4    32     0.8   837.0    0.00 
 261    6:10   0.01   51.4    66    0.3    21     0.6   837.0    0.00 
 261    6:20   0.01   51.4    66    0.3    32     0.9   837.0    0.00 
 261    6:30   0.01   51.3    67    0.3    23     0.8   837.0    0.00 
 261    6:40   0.02   51.3    67    0.4    30     0.9   837.0    0.00 
 261    6:50   0.02   51.3    67    0.3    38     0.7   837.0    0.00 
 261    7:00   0.03   51.7    66    0.5    45     0.8   837.0    0.00 
 261    7:10   0.03   52.4    65    0.5    50     0.7   837.0    0.00 
 261    7:20   0.03   53.0    64    0.6    50     1.2   837.0    0.00 
 261    7:30   0.03   53.8    63    0.5    49     1.1   837.0    0.00 
 261    7:40   0.03   54.6    61    0.7    52     1.6   837.0    0.00 
 261    7:50   0.03   55.5    59    0.6    65     1.4   837.0    0.00 
 261    8:00   0.04   57.1    54    0.7    62     1.5   837.0    0.00 
 261    8:10   0.04   58.0    51    0.6    58     1.3   837.0    0.00 
 261    8:20   0.04   59.2    48    0.6    82     1.5   837.0    0.00 
 261    8:30   0.04   61.6    42    0.6    41     1.2   837.0    0.00 
 261    8:40   0.04   64.2    32    0.6    82     1.5   837.0    0.00 
 261    8:50   0.04   66.1    28    0.6   154     1.9   837.0    0.00 
 261    9:00   0.04   67.9    24    0.6   135     1.5   837.0    0.00 
 261    9:10   0.05   68.8    21    0.6   161     2.9   837.0    0.00 
 261    9:20   0.27   69.5    21    0.7   163     2.7   837.0    0.00 
 261    9:30   0.19   70.3    21    0.9   193     2.2   837.0    0.00 
 261    9:40   0.06   70.4    20    0.6   179     1.8   837.0    0.00 
 261    9:50   0.04   70.3    21    1.0   162     2.4   837.0    0.00 
 261   10:00   0.04   70.6    22    0.8   122     1.9   837.0    0.00 
 261   10:10   0.04   70.6    28    1.0   227     2.5   837.0    0.00 

Return to James Reserve graphs page.


Western Regional Climate Center,wrcc@dri.edu